createdAt,value
2022-12-03T00:00:12.897Z,85.80
2022-12-03T00:03:01.221Z,79.70
2022-12-03T00:05:29.533Z,78.20
2022-12-03T00:07:57.843Z,55.60
2022-12-03T00:10:25.901Z,80.60
2022-12-03T00:12:53.712Z,80.30
2022-12-03T00:15:21.485Z,70.40
2022-12-03T00:17:49.326Z,87.70
2022-12-03T00:20:22.725Z,59.30
2022-12-03T00:22:51.116Z,74.50
2022-12-03T00:25:19.150Z,70.10
2022-12-03T00:27:47.191Z,64.70
2022-12-03T00:30:15.226Z,72.30
2022-12-03T00:32:43.103Z,68.10
2022-12-03T00:35:11.212Z,77.40
2022-12-03T00:37:38.941Z,78.70
2022-12-03T00:40:07.715Z,78.30
2022-12-03T00:42:35.521Z,76.10
2022-12-03T00:45:05.132Z,74.70
2022-12-03T00:47:32.890Z,77.50
2022-12-03T00:50:00.592Z,77.30
2022-12-03T00:52:28.415Z,72.90
2022-12-03T00:54:56.300Z,67.10
2022-12-03T00:57:24.358Z,80.80
2022-12-03T00:59:52.311Z,78.60
2022-12-03T01:02:20.193Z,88.30
2022-12-03T01:04:48.840Z,78.40
2022-12-03T01:07:21.496Z,73.10
2022-12-03T01:09:49.440Z,82.60
2022-12-03T01:12:17.203Z,84.60
2022-12-03T01:14:45.903Z,94.00
2022-12-03T01:17:13.971Z,82.60
2022-12-03T01:20:01.668Z,98.00
2022-12-03T01:22:29.580Z,90.70
2022-12-03T01:24:57.372Z,51.40
2022-12-03T01:27:25.074Z,93.00
2022-12-03T01:29:52.758Z,91.50
2022-12-03T01:32:20.956Z,84.00
2022-12-03T01:34:51.346Z,88.50
2022-12-03T01:37:22.431Z,94.60
2022-12-03T01:39:50.305Z,65.60
2022-12-03T01:42:31.323Z,86.90
2022-12-03T01:45:00.591Z,88.50
2022-12-03T01:47:35.288Z,83.10
2022-12-03T01:50:07.831Z,85.40
2022-12-03T01:52:38.575Z,94.20
2022-12-03T01:55:16.235Z,87.50
2022-12-03T01:57:47.772Z,96.00
2022-12-03T02:00:20.917Z,87.90
2022-12-03T02:02:54.639Z,74.90
2022-12-03T02:05:26.498Z,65.60
2022-12-03T02:07:55.004Z,89.50
2022-12-03T02:10:26.644Z,79.70
2022-12-03T02:13:09.458Z,95.30
2022-12-03T02:15:39.787Z,88.00
2022-12-03T02:18:09.297Z,84.10
2022-12-03T02:20:45.576Z,78.10
2022-12-03T02:23:48.866Z,85.80
2022-12-03T02:26:19.450Z,83.20
2022-12-03T02:28:47.309Z,75.50
2022-12-03T02:31:15.612Z,85.40
2022-12-03T02:33:43.408Z,77.50
2022-12-03T02:36:12.024Z,59.20
2022-12-03T02:38:42.592Z,75.60
2022-12-03T02:41:34.428Z,80.00
2022-12-03T02:44:05.606Z,84.10
2022-12-03T02:46:34.419Z,81.10
2022-12-03T02:49:04.089Z,69.70
2022-12-03T02:51:34.851Z,76.80
2022-12-03T02:54:03.554Z,76.10
2022-12-03T02:56:32.980Z,82.90
2022-12-03T02:59:05.068Z,91.60
2022-12-03T03:01:34.934Z,83.30
2022-12-03T03:04:04.499Z,82.20
2022-12-03T03:06:32.705Z,79.50
2022-12-03T03:09:00.764Z,80.30
2022-12-03T03:11:28.548Z,70.30
2022-12-03T03:13:56.297Z,76.00
2022-12-03T03:16:24.109Z,76.20
2022-12-03T03:18:51.872Z,78.60
2022-12-03T03:21:19.718Z,80.30
2022-12-03T03:23:47.733Z,76.70
2022-12-03T03:26:16.735Z,73.10
2022-12-03T03:28:48.775Z,68.60
2022-12-03T03:31:19.442Z,75.70
2022-12-03T03:33:49.142Z,75.60
2022-12-03T03:36:17.965Z,80.40
2022-12-03T03:38:47.108Z,73.90
2022-12-03T03:41:16.072Z,76.80
2022-12-03T03:43:45.557Z,72.30
2022-12-03T03:46:14.621Z,79.20
2022-12-03T03:48:43.694Z,81.50
2022-12-03T03:51:12.650Z,80.20
2022-12-03T03:53:43.078Z,84.40
2022-12-03T03:56:11.950Z,86.40
2022-12-03T03:58:39.863Z,85.00
2022-12-03T04:01:09.462Z,87.50
2022-12-03T04:03:37.279Z,82.20
2022-12-03T04:06:05.587Z,66.40
2022-12-03T04:08:33.316Z,83.90
2022-12-03T04:11:19.751Z,87.10
2022-12-03T04:13:48.159Z,81.90
2022-12-03T04:16:15.931Z,82.90
2022-12-03T04:18:43.778Z,88.20
2022-12-03T04:21:35.569Z,74.50
2022-12-03T04:24:04.752Z,75.10
2022-12-03T04:26:51.552Z,87.40
2022-12-03T04:29:20.244Z,84.90
2022-12-03T04:32:06.706Z,83.70
2022-12-03T04:34:53.537Z,89.00
2022-12-03T04:37:21.689Z,80.70
2022-12-03T04:39:49.669Z,78.70
2022-12-03T04:42:17.460Z,75.20
2022-12-03T04:44:45.267Z,73.00
2022-12-03T04:47:15.760Z,84.00
2022-12-03T04:49:45.355Z,66.60
2022-12-03T04:52:14.695Z,81.80
2022-12-03T04:54:42.562Z,78.90
2022-12-03T04:57:11.451Z,71.10
2022-12-03T04:59:39.639Z,77.20
2022-12-03T05:02:07.568Z,71.50
2022-12-03T05:04:35.411Z,71.40
2022-12-03T05:07:03.279Z,79.40
2022-12-03T05:09:31.051Z,74.30
2022-12-03T05:11:58.833Z,75.40
2022-12-03T05:14:26.647Z,65.40
2022-12-03T05:16:54.541Z,69.00
2022-12-03T05:19:42.390Z,64.40
2022-12-03T05:22:10.372Z,53.00
2022-12-03T05:24:38.498Z,65.70
2022-12-03T05:27:06.321Z,62.50
2022-12-03T05:29:34.093Z,70.70
2022-12-03T05:32:01.760Z,55.10
2022-12-03T05:34:29.480Z,75.40
2022-12-03T05:36:59.659Z,67.80
2022-12-03T05:39:30.602Z,70.20
2022-12-03T05:42:17.157Z,70.60
2022-12-03T05:44:44.989Z,71.20
2022-12-03T05:47:12.720Z,73.50
2022-12-03T05:49:40.660Z,66.00
2022-12-03T05:52:08.901Z,69.80
2022-12-03T05:54:36.857Z,61.20
2022-12-03T05:57:05.873Z,62.20
2022-12-03T05:59:33.545Z,55.00
2022-12-03T06:02:01.353Z,59.10
2022-12-03T06:04:29.094Z,62.20
2022-12-03T06:06:56.955Z,57.80
2022-12-03T06:09:24.726Z,67.80
2022-12-03T06:11:54.163Z,61.90
2022-12-03T06:14:22.082Z,67.40
2022-12-03T06:16:49.797Z,62.30
2022-12-03T06:19:17.982Z,66.80
2022-12-03T06:21:45.830Z,61.50
2022-12-03T06:24:13.536Z,49.20
2022-12-03T06:26:41.436Z,54.90
2022-12-03T06:29:09.870Z,65.20
2022-12-03T06:31:37.765Z,59.00
2022-12-03T06:34:05.621Z,60.80
2022-12-03T06:36:33.453Z,61.00
2022-12-03T06:39:01.225Z,62.60
2022-12-03T06:41:28.975Z,65.20
2022-12-03T06:43:56.786Z,65.40
2022-12-03T06:46:24.739Z,67.40
2022-12-03T06:48:53.072Z,67.60
2022-12-03T06:51:20.854Z,70.10
2022-12-03T06:53:48.738Z,61.80
2022-12-03T06:56:20.169Z,66.40
2022-12-03T06:58:50.069Z,69.90
2022-12-03T07:01:18.087Z,62.30
2022-12-03T07:03:46.073Z,72.20
2022-12-03T07:06:16.466Z,72.30
2022-12-03T07:08:44.339Z,62.50
2022-12-03T07:11:31.319Z,70.20
2022-12-03T07:14:05.045Z,74.00
2022-12-03T07:16:36.299Z,68.70
2022-12-03T07:19:06.613Z,66.70
2022-12-03T07:21:34.608Z,67.70
2022-12-03T07:24:02.972Z,71.80
2022-12-03T07:26:32.159Z,71.00
2022-12-03T07:29:03.380Z,73.80
2022-12-03T07:31:32.085Z,56.80
2022-12-03T07:34:00.792Z,65.20
2022-12-03T07:36:28.957Z,63.90
2022-12-03T07:38:56.908Z,63.30
2022-12-03T07:41:25.013Z,56.50
2022-12-03T07:43:53.221Z,60.70
2022-12-03T07:46:21.139Z,67.80
2022-12-03T07:48:49.092Z,66.70
2022-12-03T07:51:16.995Z,65.30
2022-12-03T07:53:44.799Z,66.50
2022-12-03T07:56:12.627Z,53.00
2022-12-03T07:58:40.501Z,59.90
2022-12-03T08:01:08.492Z,60.90
2022-12-03T08:03:36.406Z,58.10
2022-12-03T08:06:05.164Z,62.20
2022-12-03T08:08:33.009Z,63.80
2022-12-03T08:11:02.390Z,69.00
2022-12-03T08:13:30.877Z,63.00
2022-12-03T08:16:01.637Z,43.00
2022-12-03T08:18:29.512Z,63.30
2022-12-03T08:20:58.037Z,61.80
2022-12-03T08:23:26.375Z,68.40
2022-12-03T08:25:54.320Z,65.50
2022-12-03T08:28:25.757Z,70.30
2022-12-03T08:31:08.571Z,64.10
2022-12-03T08:33:37.575Z,64.50
2022-12-03T08:36:22.874Z,67.90
2022-12-03T08:38:56.811Z,65.30
2022-12-03T08:41:46.488Z,63.30
2022-12-03T08:44:41.060Z,71.00
2022-12-03T08:47:09.269Z,69.60
2022-12-03T08:50:30.197Z,67.60
2022-12-03T08:53:20.642Z,66.20
2022-12-03T08:59:32.646Z,68.10
2022-12-03T09:02:00.857Z,70.00
2022-12-03T09:04:32.271Z,71.10
2022-12-03T09:07:00.763Z,67.60
2022-12-03T09:09:29.262Z,71.90
2022-12-03T09:11:57.292Z,71.30
2022-12-03T09:14:25.547Z,74.10
2022-12-03T09:16:56.625Z,43.60
2022-12-03T09:19:26.177Z,66.40
2022-12-03T09:21:55.194Z,70.70
2022-12-03T09:24:24.839Z,68.10
2022-12-03T09:26:53.145Z,79.70
2022-12-03T09:29:21.044Z,73.80
2022-12-03T09:31:49.002Z,72.70
2022-12-03T09:34:17.107Z,64.60
2022-12-03T09:36:45.325Z,64.40
2022-12-03T09:39:13.541Z,78.30
2022-12-03T09:41:41.568Z,70.70
2022-12-03T09:44:15.870Z,69.90
2022-12-03T09:46:46.863Z,69.40
2022-12-03T09:49:18.465Z,61.50
2022-12-03T09:51:46.777Z,62.10
2022-12-03T09:54:23.867Z,69.20
2022-12-03T09:56:54.293Z,70.30
2022-12-03T09:59:26.155Z,83.40
2022-12-03T10:01:54.584Z,81.10
2022-12-03T10:04:22.966Z,67.20
2022-12-03T10:06:51.593Z,72.90
2022-12-03T10:09:27.286Z,73.80
2022-12-03T10:11:57.428Z,71.50
2022-12-03T10:14:25.797Z,76.00
2022-12-03T10:16:54.272Z,74.50
2022-12-03T10:19:26.587Z,70.60
2022-12-03T10:21:57.547Z,76.50
2022-12-03T10:24:29.977Z,76.30
2022-12-03T10:30:19.990Z,79.10
2022-12-03T10:32:51.094Z,69.20
2022-12-03T10:35:25.475Z,81.60
2022-12-03T10:38:19.806Z,79.80
2022-12-03T10:40:49.211Z,80.00
2022-12-03T10:43:25.613Z,77.50
2022-12-03T10:46:03.865Z,85.60
2022-12-03T10:48:33.614Z,83.00
2022-12-03T10:51:08.432Z,85.10
2022-12-03T10:53:40.810Z,75.60
2022-12-03T10:56:18.034Z,84.10
2022-12-03T10:58:46.569Z,78.70
2022-12-03T11:04:35.950Z,81.80
2022-12-03T11:10:21.794Z,82.00
2022-12-03T11:13:31.177Z,86.60
2022-12-03T11:16:12.322Z,93.30
2022-12-03T11:18:51.539Z,88.70
2022-12-03T11:21:21.366Z,93.60
2022-12-03T11:23:50.254Z,96.00
2022-12-03T11:27:01.683Z,89.20
2022-12-03T11:29:49.093Z,108.50
2022-12-03T11:32:41.397Z,89.20
2022-12-03T11:35:25.185Z,96.10
2022-12-03T11:44:35.020Z,94.20
2022-12-03T11:47:16.345Z,94.50
2022-12-03T11:49:47.969Z,90.90
2022-12-03T11:52:51.361Z,104.90
2022-12-03T11:55:32.123Z,102.20
2022-12-03T11:58:13.131Z,106.60
2022-12-03T12:01:08.961Z,96.10
2022-12-03T12:03:45.057Z,100.00
2022-12-03T12:06:18.059Z,100.70
2022-12-03T12:08:52.962Z,103.50
2022-12-03T12:11:31.324Z,100.50
2022-12-03T12:14:01.887Z,102.90
2022-12-03T12:16:52.518Z,90.20
2022-12-03T12:22:27.215Z,104.10
2022-12-03T12:30:36.990Z,92.80
2022-12-03T12:36:28.421Z,110.80
2022-12-03T12:38:56.540Z,117.60
2022-12-03T12:41:24.722Z,114.30
2022-12-03T12:43:52.978Z,109.10
2022-12-03T12:49:15.573Z,111.20
2022-12-03T12:51:49.289Z,107.10
2022-12-03T12:54:20.506Z,106.90
2022-12-03T12:56:52.978Z,109.30
2022-12-03T12:59:24.461Z,109.50
2022-12-03T13:01:52.843Z,107.00
2022-12-03T13:04:25.233Z,107.30
2022-12-03T13:06:57.691Z,84.60
2022-12-03T13:09:27.307Z,121.00
2022-12-03T13:11:58.734Z,118.10
2022-12-03T13:17:52.034Z,106.20
2022-12-03T13:20:29.414Z,109.50
2022-12-03T13:22:58.126Z,113.70
2022-12-03T13:28:58.080Z,117.30
2022-12-03T13:31:41.959Z,74.30
2022-12-03T13:34:28.934Z,108.10
2022-12-03T13:36:58.788Z,105.20
2022-12-03T13:39:36.912Z,111.50
2022-12-03T13:42:42.529Z,105.50
2022-12-03T13:45:14.759Z,113.30
2022-12-03T13:48:10.719Z,112.50
2022-12-03T13:50:46.312Z,114.00
2022-12-03T13:53:25.280Z,113.30
2022-12-03T13:56:20.214Z,116.10
2022-12-03T13:58:48.980Z,88.50
2022-12-03T14:01:17.436Z,123.50
2022-12-03T14:03:45.662Z,115.10
2022-12-03T14:06:14.640Z,126.50
2022-12-03T14:08:51.776Z,127.70
2022-12-03T14:11:38.405Z,116.20
2022-12-03T14:14:06.398Z,115.80
2022-12-03T14:16:34.224Z,117.60
2022-12-03T14:19:02.359Z,158.30
2022-12-03T14:21:30.814Z,155.40
2022-12-03T14:23:58.748Z,124.50
2022-12-03T14:26:26.784Z,122.30
2022-12-03T14:28:54.611Z,132.90
2022-12-03T14:31:23.485Z,128.40
2022-12-03T14:33:55.756Z,93.80
2022-12-03T14:36:23.950Z,147.60
2022-12-03T14:38:51.737Z,127.60
2022-12-03T14:41:38.198Z,148.60
2022-12-03T14:44:06.105Z,137.10
2022-12-03T14:46:34.092Z,143.40
2022-12-03T14:49:05.922Z,133.50
2022-12-03T14:51:33.859Z,140.90
2022-12-03T14:54:01.808Z,131.80
2022-12-03T14:56:36.015Z,125.60
2022-12-03T14:59:03.919Z,138.80
2022-12-03T15:01:31.936Z,138.40
2022-12-03T15:04:05.862Z,146.60
2022-12-03T15:06:34.052Z,152.10
2022-12-03T15:09:02.497Z,138.30
2022-12-03T15:11:40.245Z,129.00
2022-12-03T15:14:41.375Z,132.80
2022-12-03T15:17:33.464Z,135.70
2022-12-03T15:20:01.964Z,137.10
2022-12-03T15:22:30.088Z,145.40
2022-12-03T15:24:58.267Z,129.90
2022-12-03T15:27:26.539Z,126.50
2022-12-03T15:29:54.717Z,131.80
2022-12-03T15:35:24.765Z,127.20
2022-12-03T15:43:27.979Z,133.90
2022-12-03T15:45:56.649Z,139.20
2022-12-03T15:48:24.806Z,124.20
2022-12-03T15:50:53.377Z,135.50
2022-12-03T15:53:21.955Z,127.50
2022-12-03T15:55:50.620Z,139.30
2022-12-03T16:01:05.775Z,132.60
2022-12-03T16:03:40.797Z,133.10
2022-12-03T16:06:34.018Z,119.40
2022-12-03T16:09:02.105Z,133.30
2022-12-03T16:11:31.538Z,150.60
2022-12-03T16:14:01.341Z,148.10
2022-12-03T16:16:32.417Z,151.40
2022-12-03T16:19:01.048Z,146.40
2022-12-03T16:21:31.830Z,138.90
2022-12-03T16:24:02.578Z,140.40
2022-12-03T16:26:33.947Z,155.30
2022-12-03T16:29:02.231Z,141.00
2022-12-03T16:31:30.769Z,141.60
2022-12-03T16:34:08.534Z,134.00
2022-12-03T16:36:39.097Z,138.20
2022-12-03T16:39:28.531Z,132.50
2022-12-03T16:41:59.579Z,98.70
2022-12-03T16:45:04.892Z,137.40
2022-12-03T16:50:45.421Z,127.50
2022-12-03T16:53:40.085Z,145.40
2022-12-03T16:56:08.849Z,118.10
2022-12-03T16:58:37.151Z,125.60
2022-12-03T17:01:05.705Z,115.30
2022-12-03T17:03:34.405Z,103.40
2022-12-03T17:06:03.978Z,127.90
2022-12-03T17:08:35.876Z,125.30
2022-12-03T17:11:04.228Z,129.00
2022-12-03T17:13:34.522Z,132.80
2022-12-03T17:16:03.275Z,138.00
2022-12-03T17:18:31.629Z,131.30
2022-12-03T17:20:59.681Z,127.60
2022-12-03T17:23:29.527Z,142.30
2022-12-03T17:25:57.702Z,141.00
2022-12-03T17:28:25.887Z,150.20
2022-12-03T17:30:54.352Z,125.90
2022-12-03T17:33:25.325Z,129.00
2022-12-03T17:35:53.423Z,129.00
2022-12-03T17:38:21.551Z,136.20
2022-12-03T17:40:49.567Z,117.10
2022-12-03T17:43:17.982Z,136.90
2022-12-03T17:45:46.107Z,150.70
2022-12-03T17:48:15.452Z,134.60
2022-12-03T17:50:43.811Z,116.60
2022-12-03T17:53:11.896Z,132.10
2022-12-03T17:55:44.646Z,130.70
2022-12-03T17:58:13.978Z,131.30
2022-12-03T18:00:42.563Z,132.10
2022-12-03T18:03:10.821Z,121.60
2022-12-03T18:05:39.242Z,138.00
2022-12-03T18:08:07.562Z,127.00
2022-12-03T18:10:36.115Z,144.50
2022-12-03T18:13:04.619Z,128.00
2022-12-03T18:19:51.223Z,135.50
2022-12-03T18:22:19.735Z,134.40
2022-12-03T18:24:51.515Z,101.10
2022-12-03T18:27:21.254Z,157.50
2022-12-03T18:29:51.451Z,144.20
2022-12-03T18:32:29.470Z,125.20
2022-12-03T18:35:01.747Z,139.30
2022-12-03T18:37:30.222Z,140.30
2022-12-03T18:39:59.239Z,139.80
2022-12-03T18:42:27.578Z,128.60
2022-12-03T18:44:56.937Z,129.20
2022-12-03T18:47:31.609Z,140.90
2022-12-03T18:50:01.336Z,136.70
2022-12-03T18:52:30.079Z,133.80
2022-12-03T18:54:58.275Z,139.50
2022-12-03T18:57:26.239Z,132.80
2022-12-03T18:59:55.108Z,118.60
2022-12-03T19:03:00.651Z,133.00
2022-12-03T19:05:13.124Z,130.50
2022-12-03T19:07:43.457Z,138.00
2022-12-03T19:10:12.384Z,133.70
2022-12-03T19:12:40.807Z,136.30
2022-12-03T19:15:09.484Z,145.00
2022-12-03T19:17:40.043Z,137.80
2022-12-03T19:20:12.069Z,124.50
2022-12-03T19:22:40.348Z,140.30
2022-12-03T19:25:09.238Z,143.00
2022-12-03T19:27:39.468Z,118.80
2022-12-03T19:30:08.460Z,118.50
2022-12-03T19:32:36.793Z,132.90
2022-12-03T19:35:06.037Z,145.70
2022-12-03T19:37:34.405Z,139.70
2022-12-03T19:40:02.740Z,139.50
2022-12-03T19:42:31.269Z,143.30
2022-12-03T19:44:59.224Z,121.80
2022-12-03T19:47:30.458Z,112.50
2022-12-03T19:50:00.145Z,124.50
2022-12-03T19:52:29.436Z,127.10
2022-12-03T19:54:59.220Z,122.40
2022-12-03T19:57:27.475Z,138.00
2022-12-03T19:59:55.814Z,93.40
2022-12-03T20:02:27.239Z,129.10
2022-12-03T20:04:56.500Z,117.00
2022-12-03T20:07:24.663Z,113.00
2022-12-03T20:09:53.627Z,114.90
2022-12-03T20:12:22.719Z,133.40
2022-12-03T20:14:51.710Z,151.10
2022-12-03T20:17:19.975Z,126.20
2022-12-03T20:19:48.565Z,132.00
2022-12-03T20:22:17.039Z,142.30
2022-12-03T20:24:46.198Z,131.00
2022-12-03T20:27:17.156Z,109.30
2022-12-03T20:29:49.785Z,141.60
2022-12-03T20:32:18.275Z,122.20
2022-12-03T20:34:47.973Z,138.50
2022-12-03T20:37:18.066Z,137.80
2022-12-03T20:39:50.165Z,141.60
2022-12-03T20:42:18.309Z,131.80
2022-12-03T20:44:46.641Z,134.60
2022-12-03T20:47:15.492Z,134.40
2022-12-03T20:50:23.177Z,124.80
2022-12-03T20:53:16.252Z,141.00
2022-12-03T20:55:39.711Z,140.80
2022-12-03T20:58:08.649Z,130.30
2022-12-03T21:00:37.502Z,129.70
2022-12-03T21:03:06.516Z,134.90
2022-12-03T21:05:35.075Z,140.10
2022-12-03T21:08:03.468Z,135.50
2022-12-03T21:10:59.971Z,102.90
2022-12-03T21:13:40.678Z,114.30
2022-12-03T21:16:13.096Z,124.70
2022-12-03T21:18:41.630Z,120.80
2022-12-03T21:21:14.573Z,119.50
2022-12-03T21:23:45.886Z,118.00
2022-12-03T21:26:18.291Z,111.70
2022-12-03T21:33:19.100Z,120.10
2022-12-03T21:35:47.946Z,115.20
2022-12-03T21:38:16.609Z,116.90
2022-12-03T21:40:45.145Z,120.30
2022-12-03T21:47:38.268Z,96.90
2022-12-03T21:51:02.642Z,103.10
2022-12-03T21:55:03.870Z,122.10
2022-12-03T21:58:09.078Z,102.10
2022-12-03T22:00:37.443Z,126.80
2022-12-03T22:03:05.776Z,128.10
2022-12-03T22:05:34.587Z,126.50
2022-12-03T22:08:02.746Z,118.50
2022-12-03T22:10:34.478Z,117.00
2022-12-03T22:13:03.078Z,134.10
2022-12-03T22:15:31.503Z,114.50
2022-12-03T22:17:59.945Z,111.10
2022-12-03T22:20:28.258Z,124.60
2022-12-03T22:22:56.456Z,127.50
2022-12-03T22:25:24.830Z,121.90
2022-12-03T22:27:52.822Z,122.90
2022-12-03T22:30:21.703Z,118.30
2022-12-03T22:32:49.938Z,112.50
2022-12-03T22:35:18.179Z,126.50
2022-12-03T22:37:46.211Z,118.80
2022-12-03T22:40:14.647Z,99.90
2022-12-03T22:42:47.782Z,114.70
2022-12-03T22:45:18.805Z,117.20
2022-12-03T22:47:49.801Z,120.40
2022-12-03T22:50:17.784Z,95.60
2022-12-03T22:52:45.710Z,116.70
2022-12-03T22:55:13.898Z,110.80
2022-12-03T22:57:41.887Z,118.10
2022-12-03T23:00:10.590Z,78.50
2022-12-03T23:02:39.070Z,116.80
2022-12-03T23:05:07.476Z,111.40
2022-12-03T23:07:35.646Z,101.90
2022-12-03T23:10:04.104Z,117.30
2022-12-03T23:12:33.622Z,127.40
2022-12-03T23:15:01.878Z,116.20
2022-12-03T23:17:30.251Z,126.60
2022-12-03T23:19:58.114Z,128.50
2022-12-03T23:22:26.150Z,126.60
2022-12-03T23:24:54.090Z,123.30
2022-12-03T23:27:22.244Z,111.20
2022-12-03T23:29:50.267Z,106.50
2022-12-03T23:32:18.221Z,112.20
2022-12-03T23:34:46.309Z,108.00
2022-12-03T23:37:14.565Z,124.10
2022-12-03T23:39:42.805Z,109.70
2022-12-03T23:42:10.945Z,115.30
2022-12-03T23:44:39.342Z,119.40
2022-12-03T23:47:07.362Z,113.00
2022-12-03T23:49:35.386Z,78.50
2022-12-03T23:52:04.077Z,80.50
2022-12-03T23:54:32.204Z,97.80
2022-12-03T23:57:00.178Z,105.20
2022-12-03T23:59:28.446Z,117.70
